sensor_id;sensor_type;location;lat;lon;timestamp;P1;durP1;ratioP1;P2;durP2;ratioP2
16177;SDS011;8195;51.220;9.746;2023-10-09T00:02:15;21.10;;;12.97;;
16177;SDS011;8195;51.220;9.746;2023-10-09T00:06:36;17.83;;;12.70;;
16177;SDS011;8195;51.220;9.746;2023-10-09T00:10:57;15.03;;;11.70;;
16177;SDS011;8195;51.220;9.746;2023-10-09T00:15:19;16.70;;;12.00;;
16177;SDS011;8195;51.220;9.746;2023-10-09T00:19:39;20.30;;;14.13;;
16177;SDS011;8195;51.220;9.746;2023-10-09T00:24:01;18.47;;;13.47;;
16177;SDS011;8195;51.220;9.746;2023-10-09T00:28:21;17.70;;;13.33;;
16177;SDS011;8195;51.220;9.746;2023-10-09T00:32:43;17.87;;;12.93;;
16177;SDS011;8195;51.220;9.746;2023-10-09T00:37:04;20.93;;;14.13;;
16177;SDS011;8195;51.220;9.746;2023-10-09T00:41:24;18.87;;;13.90;;
16177;SDS011;8195;51.220;9.746;2023-10-09T00:45:44;20.90;;;13.83;;
16177;SDS011;8195;51.220;9.746;2023-10-09T00:50:07;19.20;;;14.43;;
16177;SDS011;8195;51.220;9.746;2023-10-09T00:54:28;23.10;;;15.47;;
16177;SDS011;8195;51.220;9.746;2023-10-09T00:58:49;23.67;;;15.73;;
16177;SDS011;8195;51.220;9.746;2023-10-09T01:03:14;21.97;;;15.60;;
16177;SDS011;8195;51.220;9.746;2023-10-09T01:07:35;22.03;;;15.90;;
16177;SDS011;8195;51.220;9.746;2023-10-09T01:11:57;23.40;;;15.43;;
16177;SDS011;8195;51.220;9.746;2023-10-09T01:16:18;23.63;;;15.63;;
16177;SDS011;8195;51.220;9.746;2023-10-09T01:20:44;20.97;;;15.77;;
16177;SDS011;8195;51.220;9.746;2023-10-09T01:25:06;23.87;;;16.43;;
16177;SDS011;8195;51.220;9.746;2023-10-09T01:29:27;22.10;;;16.83;;
16177;SDS011;8195;51.220;9.746;2023-10-09T01:33:48;25.70;;;16.47;;
16177;SDS011;8195;51.220;9.746;2023-10-09T01:38:09;23.83;;;17.50;;
16177;SDS011;8195;51.220;9.746;2023-10-09T01:42:29;24.53;;;17.27;;
16177;SDS011;8195;51.220;9.746;2023-10-09T01:46:49;23.07;;;17.20;;
16177;SDS011;8195;51.220;9.746;2023-10-09T01:51:13;20.10;;;16.17;;
16177;SDS011;8195;51.220;9.746;2023-10-09T01:55:34;22.07;;;15.97;;
16177;SDS011;8195;51.220;9.746;2023-10-09T01:59:54;22.47;;;15.87;;
16177;SDS011;8195;51.220;9.746;2023-10-09T02:04:14;21.93;;;15.83;;
16177;SDS011;8195;51.220;9.746;2023-10-09T02:08:35;24.97;;;17.23;;
16177;SDS011;8195;51.220;9.746;2023-10-09T02:12:59;22.07;;;16.97;;
16177;SDS011;8195;51.220;9.746;2023-10-09T02:17:23;23.53;;;17.50;;
16177;SDS011;8195;51.220;9.746;2023-10-09T02:21:43;26.70;;;18.00;;
16177;SDS011;8195;51.220;9.746;2023-10-09T02:26:03;22.07;;;16.83;;
16177;SDS011;8195;51.220;9.746;2023-10-09T02:30:24;22.93;;;17.40;;
16177;SDS011;8195;51.220;9.746;2023-10-09T02:34:44;24.87;;;18.23;;
16177;SDS011;8195;51.220;9.746;2023-10-09T02:39:04;22.23;;;17.77;;
16177;SDS011;8195;51.220;9.746;2023-10-09T02:43:25;24.67;;;17.77;;
16177;SDS011;8195;51.220;9.746;2023-10-09T02:47:45;22.93;;;17.27;;
16177;SDS011;8195;51.220;9.746;2023-10-09T02:52:05;22.67;;;16.50;;
16177;SDS011;8195;51.220;9.746;2023-10-09T02:56:26;24.73;;;15.93;;
16177;SDS011;8195;51.220;9.746;2023-10-09T03:00:46;22.73;;;17.40;;
16177;SDS011;8195;51.220;9.746;2023-10-09T03:05:07;20.40;;;16.10;;
16177;SDS011;8195;51.220;9.746;2023-10-09T03:09:27;21.80;;;16.17;;
16177;SDS011;8195;51.220;9.746;2023-10-09T03:13:49;21.53;;;16.90;;
16177;SDS011;8195;51.220;9.746;2023-10-09T03:18:09;19.80;;;16.20;;
16177;SDS011;8195;51.220;9.746;2023-10-09T03:22:29;19.93;;;15.77;;
16177;SDS011;8195;51.220;9.746;2023-10-09T03:26:50;18.80;;;16.63;;
16177;SDS011;8195;51.220;9.746;2023-10-09T03:31:11;22.13;;;17.43;;
16177;SDS011;8195;51.220;9.746;2023-10-09T03:35:33;19.87;;;15.80;;
16177;SDS011;8195;51.220;9.746;2023-10-09T03:39:53;23.20;;;16.03;;
16177;SDS011;8195;51.220;9.746;2023-10-09T03:44:14;22.40;;;16.40;;
16177;SDS011;8195;51.220;9.746;2023-10-09T03:48:34;20.80;;;16.57;;
16177;SDS011;8195;51.220;9.746;2023-10-09T03:52:54;20.27;;;16.20;;
16177;SDS011;8195;51.220;9.746;2023-10-09T03:57:16;21.90;;;16.57;;
16177;SDS011;8195;51.220;9.746;2023-10-09T04:01:36;21.13;;;15.97;;
16177;SDS011;8195;51.220;9.746;2023-10-09T04:05:57;21.70;;;16.27;;
16177;SDS011;8195;51.220;9.746;2023-10-09T04:10:17;20.47;;;16.70;;
16177;SDS011;8195;51.220;9.746;2023-10-09T04:14:38;23.37;;;16.83;;
16177;SDS011;8195;51.220;9.746;2023-10-09T04:19:01;20.73;;;16.00;;
16177;SDS011;8195;51.220;9.746;2023-10-09T04:23:22;23.53;;;17.17;;
16177;SDS011;8195;51.220;9.746;2023-10-09T04:27:43;20.10;;;17.73;;
16177;SDS011;8195;51.220;9.746;2023-10-09T04:32:04;21.17;;;16.33;;
16177;SDS011;8195;51.220;9.746;2023-10-09T04:36:26;20.30;;;15.47;;
16177;SDS011;8195;51.220;9.746;2023-10-09T04:40:46;21.10;;;15.40;;
16177;SDS011;8195;51.220;9.746;2023-10-09T04:45:06;20.97;;;16.13;;
16177;SDS011;8195;51.220;9.746;2023-10-09T04:49:27;19.93;;;15.70;;
16177;SDS011;8195;51.220;9.746;2023-10-09T04:53:47;20.03;;;15.60;;
16177;SDS011;8195;51.220;9.746;2023-10-09T04:58:08;21.97;;;16.80;;
16177;SDS011;8195;51.220;9.746;2023-10-09T05:02:30;21.23;;;15.67;;
16177;SDS011;8195;51.220;9.746;2023-10-09T05:06:50;21.70;;;15.33;;
16177;SDS011;8195;51.220;9.746;2023-10-09T05:11:11;19.53;;;14.73;;
16177;SDS011;8195;51.220;9.746;2023-10-09T05:15:31;16.07;;;13.53;;
16177;SDS011;8195;51.220;9.746;2023-10-09T05:19:51;18.90;;;15.20;;
16177;SDS011;8195;51.220;9.746;2023-10-09T05:24:13;15.77;;;13.47;;
16177;SDS011;8195;51.220;9.746;2023-10-09T05:28:33;20.27;;;14.93;;
16177;SDS011;8195;51.220;9.746;2023-10-09T05:32:54;16.57;;;14.13;;
16177;SDS011;8195;51.220;9.746;2023-10-09T05:37:14;16.47;;;13.13;;
16177;SDS011;8195;51.220;9.746;2023-10-09T05:41:35;16.43;;;13.83;;
16177;SDS011;8195;51.220;9.746;2023-10-09T05:45:55;15.67;;;13.33;;
16177;SDS011;8195;51.220;9.746;2023-10-09T05:50:15;15.40;;;13.23;;
16177;SDS011;8195;51.220;9.746;2023-10-09T05:54:36;14.80;;;13.17;;
16177;SDS011;8195;51.220;9.746;2023-10-09T05:58:56;15.23;;;12.77;;
16177;SDS011;8195;51.220;9.746;2023-10-09T06:03:17;14.03;;;12.27;;
16177;SDS011;8195;51.220;9.746;2023-10-09T06:07:37;16.47;;;12.80;;
16177;SDS011;8195;51.220;9.746;2023-10-09T06:11:57;16.77;;;12.33;;
16177;SDS011;8195;51.220;9.746;2023-10-09T06:16:18;15.87;;;11.73;;
16177;SDS011;8195;51.220;9.746;2023-10-09T06:20:38;15.83;;;12.33;;
16177;SDS011;8195;51.220;9.746;2023-10-09T06:24:58;12.63;;;10.90;;
16177;SDS011;8195;51.220;9.746;2023-10-09T06:29:19;15.03;;;11.50;;
16177;SDS011;8195;51.220;9.746;2023-10-09T06:33:39;14.17;;;10.97;;
16177;SDS011;8195;51.220;9.746;2023-10-09T06:37:59;13.50;;;10.60;;
16177;SDS011;8195;51.220;9.746;2023-10-09T06:42:29;13.40;;;10.77;;
16177;SDS011;8195;51.220;9.746;2023-10-09T06:52:31;12.13;;;10.10;;
16177;SDS011;8195;51.220;9.746;2023-10-09T06:57:48;12.53;;;10.30;;
16177;SDS011;8195;51.220;9.746;2023-10-09T07:02:28;13.13;;;10.40;;
16177;SDS011;8195;51.220;9.746;2023-10-09T07:07:16;10.77;;;9.67;;
16177;SDS011;8195;51.220;9.746;2023-10-09T07:12:10;11.20;;;9.97;;
16177;SDS011;8195;51.220;9.746;2023-10-09T07:17:19;13.00;;;10.10;;
16177;SDS011;8195;51.220;9.746;2023-10-09T07:22:01;12.27;;;10.30;;
16177;SDS011;8195;51.220;9.746;2023-10-09T07:26:29;12.53;;;10.47;;
16177;SDS011;8195;51.220;9.746;2023-10-09T07:31:00;10.83;;;9.70;;
16177;SDS011;8195;51.220;9.746;2023-10-09T07:35:50;13.23;;;9.97;;
16177;SDS011;8195;51.220;9.746;2023-10-09T07:40:52;11.97;;;10.03;;
16177;SDS011;8195;51.220;9.746;2023-10-09T07:46:08;13.07;;;11.10;;
16177;SDS011;8195;51.220;9.746;2023-10-09T07:51:13;12.30;;;10.03;;
16177;SDS011;8195;51.220;9.746;2023-10-09T07:55:56;14.53;;;9.93;;
16177;SDS011;8195;51.220;9.746;2023-10-09T08:00:34;11.13;;;9.80;;
16177;SDS011;8195;51.220;9.746;2023-10-09T08:05:29;13.37;;;9.97;;
16177;SDS011;8195;51.220;9.746;2023-10-09T08:10:29;12.77;;;10.27;;
16177;SDS011;8195;51.220;9.746;2023-10-09T08:14:59;13.50;;;10.10;;
16177;SDS011;8195;51.220;9.746;2023-10-09T08:25:00;10.53;;;8.70;;
16177;SDS011;8195;51.220;9.746;2023-10-09T08:29:50;11.70;;;9.23;;
16177;SDS011;8195;51.220;9.746;2023-10-09T08:34:40;11.87;;;9.50;;
16177;SDS011;8195;51.220;9.746;2023-10-09T08:39:41;11.40;;;8.77;;
16177;SDS011;8195;51.220;9.746;2023-10-09T08:44:39;9.97;;;8.60;;
16177;SDS011;8195;51.220;9.746;2023-10-09T08:49:21;9.93;;;8.60;;
16177;SDS011;8195;51.220;9.746;2023-10-09T08:54:00;11.90;;;8.70;;
16177;SDS011;8195;51.220;9.746;2023-10-09T08:58:30;10.87;;;8.87;;
16177;SDS011;8195;51.220;9.746;2023-10-09T09:03:06;9.90;;;8.67;;
16177;SDS011;8195;51.220;9.746;2023-10-09T09:08:34;9.57;;;8.63;;
16177;SDS011;8195;51.220;9.746;2023-10-09T09:13:14;9.93;;;8.93;;
16177;SDS011;8195;51.220;9.746;2023-10-09T09:18:07;10.80;;;8.80;;
16177;SDS011;8195;51.220;9.746;2023-10-09T09:27:52;10.10;;;8.80;;
16177;SDS011;8195;51.220;9.746;2023-10-09T09:32:34;12.33;;;8.50;;
16177;SDS011;8195;51.220;9.746;2023-10-09T09:37:20;9.40;;;8.40;;
16177;SDS011;8195;51.220;9.746;2023-10-09T09:51:51;9.20;;;8.30;;
16177;SDS011;8195;51.220;9.746;2023-10-09T09:56:48;9.00;;;8.00;;
16177;SDS011;8195;51.220;9.746;2023-10-09T10:01:32;10.13;;;9.07;;
16177;SDS011;8195;51.220;9.746;2023-10-09T10:06:19;9.87;;;8.67;;
16177;SDS011;8195;51.220;9.746;2023-10-09T10:10:44;8.47;;;7.67;;
16177;SDS011;8195;51.220;9.746;2023-10-09T10:15:24;11.50;;;8.23;;
16177;SDS011;8195;51.220;9.746;2023-10-09T10:20:10;10.20;;;9.13;;
16177;SDS011;8195;51.220;9.746;2023-10-09T10:29:35;9.43;;;8.23;;
16177;SDS011;8195;51.220;9.746;2023-10-09T10:34:21;9.80;;;8.53;;
16177;SDS011;8195;51.220;9.746;2023-10-09T10:39:08;9.70;;;8.67;;
16177;SDS011;8195;51.220;9.746;2023-10-09T10:43:30;11.13;;;9.10;;
16177;SDS011;8195;51.220;9.746;2023-10-09T10:47:51;8.87;;;8.03;;
16177;SDS011;8195;51.220;9.746;2023-10-09T10:52:29;9.60;;;7.83;;
16177;SDS011;8195;51.220;9.746;2023-10-09T10:56:51;10.13;;;7.97;;
16177;SDS011;8195;51.220;9.746;2023-10-09T11:01:17;8.90;;;7.83;;
16177;SDS011;8195;51.220;9.746;2023-10-09T11:05:42;9.43;;;8.53;;
16177;SDS011;8195;51.220;9.746;2023-10-09T11:10:03;8.70;;;7.90;;
16177;SDS011;8195;51.220;9.746;2023-10-09T11:14:29;11.80;;;8.30;;
16177;SDS011;8195;51.220;9.746;2023-10-09T11:18:56;8.50;;;7.37;;
16177;SDS011;8195;51.220;9.746;2023-10-09T11:23:57;9.50;;;8.53;;
16177;SDS011;8195;51.220;9.746;2023-10-09T11:28:19;8.50;;;7.60;;
16177;SDS011;8195;51.220;9.746;2023-10-09T11:32:41;11.53;;;7.90;;
16177;SDS011;8195;51.220;9.746;2023-10-09T11:41:41;8.47;;;7.27;;
16177;SDS011;8195;51.220;9.746;2023-10-09T11:46:11;8.50;;;7.60;;
16177;SDS011;8195;51.220;9.746;2023-10-09T11:55:13;8.77;;;7.77;;
16177;SDS011;8195;51.220;9.746;2023-10-09T11:59:39;8.50;;;7.73;;
16177;SDS011;8195;51.220;9.746;2023-10-09T12:04:02;9.57;;;8.63;;
16177;SDS011;8195;51.220;9.746;2023-10-09T12:08:23;9.43;;;8.43;;
16177;SDS011;8195;51.220;9.746;2023-10-09T12:12:45;9.40;;;8.50;;
16177;SDS011;8195;51.220;9.746;2023-10-09T12:17:12;16.93;;;9.63;;
16177;SDS011;8195;51.220;9.746;2023-10-09T12:21:33;32.03;;;14.43;;
16177;SDS011;8195;51.220;9.746;2023-10-09T12:26:04;11.03;;;8.93;;
16177;SDS011;8195;51.220;9.746;2023-10-09T12:30:27;9.67;;;8.63;;
16177;SDS011;8195;51.220;9.746;2023-10-09T12:34:53;11.00;;;8.30;;
16177;SDS011;8195;51.220;9.746;2023-10-09T12:39:13;9.33;;;8.43;;
16177;SDS011;8195;51.220;9.746;2023-10-09T12:43:36;9.73;;;8.57;;
16177;SDS011;8195;51.220;9.746;2023-10-09T12:47:58;13.83;;;7.90;;
16177;SDS011;8195;51.220;9.746;2023-10-09T12:52:20;8.83;;;7.77;;
16177;SDS011;8195;51.220;9.746;2023-10-09T12:56:41;9.27;;;8.37;;
16177;SDS011;8195;51.220;9.746;2023-10-09T13:01:02;9.33;;;7.40;;
16177;SDS011;8195;51.220;9.746;2023-10-09T13:05:22;9.33;;;8.40;;
16177;SDS011;8195;51.220;9.746;2023-10-09T13:09:44;8.97;;;7.93;;
16177;SDS011;8195;51.220;9.746;2023-10-09T13:14:04;11.63;;;8.57;;
16177;SDS011;8195;51.220;9.746;2023-10-09T13:18:26;8.40;;;7.63;;
16177;SDS011;8195;51.220;9.746;2023-10-09T13:22:46;9.07;;;7.53;;
16177;SDS011;8195;51.220;9.746;2023-10-09T13:27:06;8.83;;;7.90;;
16177;SDS011;8195;51.220;9.746;2023-10-09T13:31:27;10.00;;;8.43;;
16177;SDS011;8195;51.220;9.746;2023-10-09T13:35:47;8.67;;;7.87;;
16177;SDS011;8195;51.220;9.746;2023-10-09T13:40:09;9.20;;;7.83;;
